EST,Max TemperatureF,Mean TemperatureF,Min TemperatureF,Max Dew PointF,MeanDew PointF,Min DewpointF,Max Humidity, Mean Humidity, Min Humidity, Max Sea Level PressureIn, Mean Sea Level PressureIn, Min Sea Level PressureIn, Max VisibilityMiles, Mean VisibilityMiles, Min VisibilityMiles, Max Wind SpeedMPH, Mean Wind SpeedMPH, Max Gust SpeedMPH,PrecipitationIn, CloudCover, Events, WindDirDegrees
2011-11-1,58,43,27,37,29,27,100,65,30,30.40,30.32,30.25,10,5,0,7,1,13,0.00,3,Fog,278
2011-11-2,67,46,25,35,30,23,100,62,24,30.47,30.36,30.26,10,8,5,5,0,7,0.00,0,,-1
2011-11-3,70,49,28,39,33,28,100,61,22,30.21,30.07,29.91,10,9,5,13,1,17,0.00,1,,340
2011-11-4,57,42,27,40,35,25,92,69,45,30.28,30.05,29.88,10,10,10,15,5,21,0.00,2,,338
2011-11-5,60,41,21,28,19,6,100,57,13,30.42,30.35,30.28,10,10,10,14,3,18,0.00,0,,133
2011-11-6,66,44,22,28,22,15,92,54,15,30.50,30.41,30.34,10,10,10,7,0,9,0.00,0,,357
2011-11-7,67,45,23,37,30,21,96,63,29,30.50,30.41,30.33,10,10,8,7,0,8,0.00,0,,95
2011-11-8,73,49,24,38,29,23,100,61,22,30.40,30.30,30.19,10,7,0,12,1,15,0.00,1,Fog,330
2011-11-9,74,49,24,50,32,23,92,54,16,30.21,30.07,29.95,10,9,4,14,4,18,T,2,Rain,193
2011-11-10,56,42,28,52,35,25,89,72,55,30.05,29.97,29.91,10,9,2,21,6,29,0.01,7,Rain-Snow,282
2011-11-11,40,32,23,28,24,21,88,69,50,30.14,30.03,29.90,10,9,5,20,7,29,0.01,6,Rain-Snow,278
2011-11-12,60,41,22,28,25,19,88,57,25,30.17,30.14,30.10,10,10,8,20,5,28,0.00,0,,230
2011-11-13,64,45,25,42,34,24,92,64,36,30.16,30.04,29.93,10,10,8,16,5,25,0.00,2,,171
2011-11-14,73,65,57,51,47,40,60,51,41,29.96,29.89,29.82,10,10,10,22,10,31,0.00,5,,206
2011-11-15,67,59,51,54,50,48,93,75,56,29.99,29.93,29.82,10,9,3,10,5,14,0.10,8,Rain,182
2011-11-16,56,50,44,54,49,39,100,93,86,29.97,29.87,29.80,10,6,1,14,3,18,0.80,8,Rain,325
2011-11-17,44,36,28,37,27,12,89,69,49,30.35,30.08,29.96,10,6,0,21,9,31,0.04,7,Fog-Snow,307
2011-11-18,44,31,18,21,15,10,84,56,27,30.52,30.41,30.34,10,10,10,15,2,24,0.00,0,,224
2011-11-19,58,39,20,35,25,17,92,60,28,30.44,30.32,30.20,10,10,10,10,3,15,0.00,0,,158
2011-11-20,61,54,46,54,51,36,100,77,54,30.29,30.21,30.18,10,5,1,18,5,24,0.47,8,Rain,209
2011-11-21,58,55,52,55,53,52,100,97,93,30.26,30.21,30.18,10,4,1,7,1,9,0.33,8,Rain,215
2011-11-22,61,56,51,56,53,50,100,89,78,30.19,30.08,29.80,10,3,0,17,2,26,1.23,8,Fog-Rain,176
2011-11-23,59,48,36,54,40,34,92,84,75,30.30,29.93,29.68,10,7,2,26,9,36,0.31,8,Rain,292
2011-11-24,54,41,27,36,30,25,92,69,45,30.42,30.35,30.25,10,5,0,12,2,15,0.00,3,Fog,293
2011-11-25,63,43,22,32,23,13,96,56,15,30.43,30.33,30.23,10,6,0,13,1,17,0.00,1,Fog,256
2011-11-26,61,43,25,42,33,23,96,71,46,30.39,30.27,30.14,10,9,2,14,2,20,0.00,1,,212
2011-11-27,66,48,29,45,34,28,100,72,44,30.17,30.09,29.96,10,5,1,17,6,25,T,2,,169
2011-11-28,64,61,58,51,48,44,67,60,52,30.03,29.95,29.83,10,10,10,25,8,36,0.00,4,,150
2011-11-29,63,48,33,54,38,28,96,70,43,29.80,29.69,29.63,10,7,2,25,7,36,0.59,7,Rain-Snow,217
2011-11-30,36,34,32,29,27,25,85,77,69,30.26,29.91,29.69,10,6,1,18,7,28,T,8,Snow,255